sensor_id;sensor_type;location;lat;lon;timestamp;P1;durP1;ratioP1;P2;durP2;ratioP2
74465;SDS011;62916;50.044;15.938;2022-09-01T00:00:46;2.20;;;1.30;;
74465;SDS011;62916;50.044;15.938;2022-09-01T00:03:18;1.10;;;1.00;;
74465;SDS011;62916;50.044;15.938;2022-09-01T00:05:50;1.40;;;1.00;;
74465;SDS011;62916;50.044;15.938;2022-09-01T00:08:23;1.80;;;1.00;;
74465;SDS011;62916;50.044;15.938;2022-09-01T00:10:54;1.60;;;1.10;;
74465;SDS011;62916;50.044;15.938;2022-09-01T00:13:25;1.80;;;1.10;;
74465;SDS011;62916;50.044;15.938;2022-09-01T00:16:00;1.10;;;0.90;;
74465;SDS011;62916;50.044;15.938;2022-09-01T00:18:31;1.90;;;1.00;;
74465;SDS011;62916;50.044;15.938;2022-09-01T00:21:03;1.20;;;1.10;;
74465;SDS011;62916;50.044;15.938;2022-09-01T00:23:34;1.20;;;1.00;;
74465;SDS011;62916;50.044;15.938;2022-09-01T00:26:05;1.30;;;1.20;;
74465;SDS011;62916;50.044;15.938;2022-09-01T00:28:36;1.10;;;1.00;;
74465;SDS011;62916;50.044;15.938;2022-09-01T00:31:07;1.10;;;1.00;;
74465;SDS011;62916;50.044;15.938;2022-09-01T00:33:38;3.10;;;1.30;;
74465;SDS011;62916;50.044;15.938;2022-09-01T00:36:10;1.50;;;1.00;;
74465;SDS011;62916;50.044;15.938;2022-09-01T00:38:41;1.30;;;1.00;;
74465;SDS011;62916;50.044;15.938;2022-09-01T00:41:12;1.70;;;1.00;;
74465;SDS011;62916;50.044;15.938;2022-09-01T00:43:46;2.10;;;1.10;;
74465;SDS011;62916;50.044;15.938;2022-09-01T00:46:19;1.60;;;1.10;;
74465;SDS011;62916;50.044;15.938;2022-09-01T00:48:57;1.30;;;0.90;;
74465;SDS011;62916;50.044;15.938;2022-09-01T00:51:30;1.90;;;0.80;;
74465;SDS011;62916;50.044;15.938;2022-09-01T00:54:05;1.20;;;1.10;;
74465;SDS011;62916;50.044;15.938;2022-09-01T00:56:40;2.20;;;0.90;;
74465;SDS011;62916;50.044;15.938;2022-09-01T00:59:20;1.30;;;1.10;;
74465;SDS011;62916;50.044;15.938;2022-09-01T01:01:54;1.70;;;1.20;;
74465;SDS011;62916;50.044;15.938;2022-09-01T01:04:26;1.10;;;1.00;;
74465;SDS011;62916;50.044;15.938;2022-09-01T01:06:57;1.20;;;1.00;;
74465;SDS011;62916;50.044;15.938;2022-09-01T01:09:30;2.20;;;1.20;;
74465;SDS011;62916;50.044;15.938;2022-09-01T01:12:05;1.30;;;0.80;;
74465;SDS011;62916;50.044;15.938;2022-09-01T01:14:40;1.30;;;1.20;;
74465;SDS011;62916;50.044;15.938;2022-09-01T01:17:12;1.20;;;0.90;;
74465;SDS011;62916;50.044;15.938;2022-09-01T01:19:44;1.50;;;1.00;;
74465;SDS011;62916;50.044;15.938;2022-09-01T01:22:35;1.40;;;1.00;;
74465;SDS011;62916;50.044;15.938;2022-09-01T01:30:34;1.30;;;1.00;;
74465;SDS011;62916;50.044;15.938;2022-09-01T01:33:06;1.40;;;1.10;;
74465;SDS011;62916;50.044;15.938;2022-09-01T01:35:38;1.20;;;1.10;;
74465;SDS011;62916;50.044;15.938;2022-09-01T01:38:10;1.10;;;1.00;;
74465;SDS011;62916;50.044;15.938;2022-09-01T01:40:43;2.40;;;1.30;;
74465;SDS011;62916;50.044;15.938;2022-09-01T01:43:13;1.70;;;1.30;;
74465;SDS011;62916;50.044;15.938;2022-09-01T01:45:46;1.00;;;0.90;;
74465;SDS011;62916;50.044;15.938;2022-09-01T01:48:20;1.50;;;1.20;;
74465;SDS011;62916;50.044;15.938;2022-09-01T01:50:51;0.90;;;0.80;;
74465;SDS011;62916;50.044;15.938;2022-09-01T01:53:24;1.70;;;1.10;;
74465;SDS011;62916;50.044;15.938;2022-09-01T01:55:56;0.90;;;0.80;;
74465;SDS011;62916;50.044;15.938;2022-09-01T01:58:27;1.30;;;1.20;;
74465;SDS011;62916;50.044;15.938;2022-09-01T02:00:59;1.00;;;0.90;;
74465;SDS011;62916;50.044;15.938;2022-09-01T02:03:31;1.10;;;1.10;;
74465;SDS011;62916;50.044;15.938;2022-09-01T02:06:06;1.10;;;1.00;;
74465;SDS011;62916;50.044;15.938;2022-09-01T02:11:08;1.90;;;1.00;;
74465;SDS011;62916;50.044;15.938;2022-09-01T02:13:40;0.90;;;0.90;;
74465;SDS011;62916;50.044;15.938;2022-09-01T02:16:13;1.30;;;1.10;;
74465;SDS011;62916;50.044;15.938;2022-09-01T02:18:45;1.90;;;1.10;;
74465;SDS011;62916;50.044;15.938;2022-09-01T02:21:17;1.80;;;1.20;;
74465;SDS011;62916;50.044;15.938;2022-09-01T02:23:51;1.20;;;0.90;;
74465;SDS011;62916;50.044;15.938;2022-09-01T02:26:28;1.90;;;1.40;;
74465;SDS011;62916;50.044;15.938;2022-09-01T02:29:02;2.50;;;1.30;;
74465;SDS011;62916;50.044;15.938;2022-09-01T02:31:36;1.80;;;1.10;;
74465;SDS011;62916;50.044;15.938;2022-09-01T02:34:07;1.40;;;1.00;;
74465;SDS011;62916;50.044;15.938;2022-09-01T02:36:41;1.20;;;0.90;;
74465;SDS011;62916;50.044;15.938;2022-09-01T02:39:16;1.40;;;1.10;;
74465;SDS011;62916;50.044;15.938;2022-09-01T02:41:50;1.50;;;1.00;;
74465;SDS011;62916;50.044;15.938;2022-09-01T02:44:21;1.90;;;1.10;;
74465;SDS011;62916;50.044;15.938;2022-09-01T02:46:54;1.20;;;0.90;;
74465;SDS011;62916;50.044;15.938;2022-09-01T02:49:29;2.10;;;1.00;;
74465;SDS011;62916;50.044;15.938;2022-09-01T02:52:00;1.60;;;1.20;;
74465;SDS011;62916;50.044;15.938;2022-09-01T02:54:31;1.10;;;1.00;;
74465;SDS011;62916;50.044;15.938;2022-09-01T02:57:03;1.30;;;1.00;;
74465;SDS011;62916;50.044;15.938;2022-09-01T02:59:35;1.10;;;1.00;;
74465;SDS011;62916;50.044;15.938;2022-09-01T03:02:10;1.10;;;0.90;;
74465;SDS011;62916;50.044;15.938;2022-09-01T03:04:41;1.40;;;1.00;;
74465;SDS011;62916;50.044;15.938;2022-09-01T03:07:12;1.10;;;1.00;;
74465;SDS011;62916;50.044;15.938;2022-09-01T03:09:45;1.80;;;1.00;;
74465;SDS011;62916;50.044;15.938;2022-09-01T03:12:16;1.10;;;1.00;;
74465;SDS011;62916;50.044;15.938;2022-09-01T03:14:47;1.20;;;1.10;;
74465;SDS011;62916;50.044;15.938;2022-09-01T03:17:17;1.00;;;0.90;;
74465;SDS011;62916;50.044;15.938;2022-09-01T03:19:48;1.50;;;1.40;;
74465;SDS011;62916;50.044;15.938;2022-09-01T03:22:19;1.30;;;1.10;;
74465;SDS011;62916;50.044;15.938;2022-09-01T03:24:50;1.80;;;1.20;;
74465;SDS011;62916;50.044;15.938;2022-09-01T03:27:23;1.80;;;1.10;;
74465;SDS011;62916;50.044;15.938;2022-09-01T03:29:54;3.00;;;1.30;;
74465;SDS011;62916;50.044;15.938;2022-09-01T03:32:25;2.40;;;1.10;;
74465;SDS011;62916;50.044;15.938;2022-09-01T03:34:56;2.40;;;1.20;;
74465;SDS011;62916;50.044;15.938;2022-09-01T03:37:27;1.50;;;1.20;;
74465;SDS011;62916;50.044;15.938;2022-09-01T03:39:57;21.40;;;5.20;;
74465;SDS011;62916;50.044;15.938;2022-09-01T03:42:31;12.90;;;4.00;;
74465;SDS011;62916;50.044;15.938;2022-09-01T03:45:02;12.30;;;4.10;;
74465;SDS011;62916;50.044;15.938;2022-09-01T03:47:39;16.10;;;4.10;;
74465;SDS011;62916;50.044;15.938;2022-09-01T03:50:12;16.50;;;4.10;;
74465;SDS011;62916;50.044;15.938;2022-09-01T03:52:47;11.50;;;3.40;;
74465;SDS011;62916;50.044;15.938;2022-09-01T03:55:20;12.70;;;3.10;;
74465;SDS011;62916;50.044;15.938;2022-09-01T03:57:54;9.70;;;3.00;;
74465;SDS011;62916;50.044;15.938;2022-09-01T04:00:27;14.10;;;3.40;;
74465;SDS011;62916;50.044;15.938;2022-09-01T04:02:58;8.60;;;3.00;;
74465;SDS011;62916;50.044;15.938;2022-09-01T04:05:30;8.10;;;2.70;;
74465;SDS011;62916;50.044;15.938;2022-09-01T04:08:04;6.10;;;2.50;;
74465;SDS011;62916;50.044;15.938;2022-09-01T04:10:41;8.60;;;2.90;;
74465;SDS011;62916;50.044;15.938;2022-09-01T04:13:21;5.10;;;2.80;;
74465;SDS011;62916;50.044;15.938;2022-09-01T04:15:55;4.20;;;2.40;;
74465;SDS011;62916;50.044;15.938;2022-09-01T04:18:26;4.80;;;2.00;;
74465;SDS011;62916;50.044;15.938;2022-09-01T04:20:58;8.30;;;2.60;;
74465;SDS011;62916;50.044;15.938;2022-09-01T04:23:30;4.40;;;2.00;;
74465;SDS011;62916;50.044;15.938;2022-09-01T04:26:02;4.00;;;2.50;;
74465;SDS011;62916;50.044;15.938;2022-09-01T04:28:38;5.40;;;2.70;;
74465;SDS011;62916;50.044;15.938;2022-09-01T04:31:12;4.00;;;1.60;;
74465;SDS011;62916;50.044;15.938;2022-09-01T04:33:46;3.10;;;2.00;;
74465;SDS011;62916;50.044;15.938;2022-09-01T04:36:20;2.90;;;1.70;;
74465;SDS011;62916;50.044;15.938;2022-09-01T04:38:53;3.90;;;1.70;;
74465;SDS011;62916;50.044;15.938;2022-09-01T04:41:27;3.40;;;2.00;;
74465;SDS011;62916;50.044;15.938;2022-09-01T04:44:02;3.50;;;1.70;;
74465;SDS011;62916;50.044;15.938;2022-09-01T04:46:35;2.40;;;1.50;;
74465;SDS011;62916;50.044;15.938;2022-09-01T04:49:09;2.50;;;1.80;;
74465;SDS011;62916;50.044;15.938;2022-09-01T04:51:47;3.10;;;1.60;;
74465;SDS011;62916;50.044;15.938;2022-09-01T04:54:21;2.10;;;1.50;;
74465;SDS011;62916;50.044;15.938;2022-09-01T04:56:53;2.60;;;1.70;;
74465;SDS011;62916;50.044;15.938;2022-09-01T04:59:24;1.90;;;1.80;;
74465;SDS011;62916;50.044;15.938;2022-09-01T05:01:56;1.50;;;1.40;;
74465;SDS011;62916;50.044;15.938;2022-09-01T05:04:28;1.60;;;1.20;;
74465;SDS011;62916;50.044;15.938;2022-09-01T05:07:01;1.40;;;1.30;;
74465;SDS011;62916;50.044;15.938;2022-09-01T05:09:35;1.70;;;1.50;;
74465;SDS011;62916;50.044;15.938;2022-09-01T05:12:06;2.50;;;1.70;;
74465;SDS011;62916;50.044;15.938;2022-09-01T05:14:44;3.30;;;1.50;;
74465;SDS011;62916;50.044;15.938;2022-09-01T05:17:16;1.60;;;1.50;;
74465;SDS011;62916;50.044;15.938;2022-09-01T05:19:48;2.70;;;1.50;;
74465;SDS011;62916;50.044;15.938;2022-09-01T05:22:19;1.50;;;1.40;;
74465;SDS011;62916;50.044;15.938;2022-09-01T05:24:50;2.80;;;1.30;;
74465;SDS011;62916;50.044;15.938;2022-09-01T05:27:22;2.30;;;1.80;;
74465;SDS011;62916;50.044;15.938;2022-09-01T05:29:53;1.80;;;1.50;;
74465;SDS011;62916;50.044;15.938;2022-09-01T05:34:56;1.50;;;1.40;;
74465;SDS011;62916;50.044;15.938;2022-09-01T05:37:28;2.60;;;1.70;;
74465;SDS011;62916;50.044;15.938;2022-09-01T05:40:01;1.40;;;1.30;;
74465;SDS011;62916;50.044;15.938;2022-09-01T05:42:39;2.00;;;1.60;;
74465;SDS011;62916;50.044;15.938;2022-09-01T05:45:10;1.70;;;1.50;;
74465;SDS011;62916;50.044;15.938;2022-09-01T05:47:41;1.30;;;1.20;;
74465;SDS011;62916;50.044;15.938;2022-09-01T05:50:13;2.70;;;2.20;;
74465;SDS011;62916;50.044;15.938;2022-09-01T05:52:45;1.80;;;1.50;;
74465;SDS011;62916;50.044;15.938;2022-09-01T05:55:17;2.00;;;1.60;;
74465;SDS011;62916;50.044;15.938;2022-09-01T05:57:49;3.40;;;1.70;;
74465;SDS011;62916;50.044;15.938;2022-09-01T06:00:21;1.50;;;1.40;;
74465;SDS011;62916;50.044;15.938;2022-09-01T06:03:01;1.40;;;1.30;;
74465;SDS011;62916;50.044;15.938;2022-09-01T06:05:36;1.40;;;1.20;;
74465;SDS011;62916;50.044;15.938;2022-09-01T06:08:09;3.40;;;1.60;;
74465;SDS011;62916;50.044;15.938;2022-09-01T06:10:43;2.20;;;1.20;;
74465;SDS011;62916;50.044;15.938;2022-09-01T06:13:15;3.30;;;1.70;;
74465;SDS011;62916;50.044;15.938;2022-09-01T06:15:54;1.50;;;1.40;;
74465;SDS011;62916;50.044;15.938;2022-09-01T06:18:25;1.90;;;1.60;;
74465;SDS011;62916;50.044;15.938;2022-09-01T06:20:56;1.70;;;1.50;;
74465;SDS011;62916;50.044;15.938;2022-09-01T06:23:27;1.60;;;1.30;;
74465;SDS011;62916;50.044;15.938;2022-09-01T06:25:59;2.10;;;1.50;;
74465;SDS011;62916;50.044;15.938;2022-09-01T06:28:30;1.70;;;1.10;;
74465;SDS011;62916;50.044;15.938;2022-09-01T06:31:06;1.30;;;1.20;;
74465;SDS011;62916;50.044;15.938;2022-09-01T06:33:38;2.20;;;1.70;;
74465;SDS011;62916;50.044;15.938;2022-09-01T06:36:10;1.90;;;1.50;;
74465;SDS011;62916;50.044;15.938;2022-09-01T06:38:41;1.90;;;1.60;;
74465;SDS011;62916;50.044;15.938;2022-09-01T06:41:13;1.60;;;1.50;;
74465;SDS011;62916;50.044;15.938;2022-09-01T06:43:46;2.70;;;2.40;;
74465;SDS011;62916;50.044;15.938;2022-09-01T06:46:19;1.50;;;1.40;;
74465;SDS011;62916;50.044;15.938;2022-09-01T06:48:54;2.00;;;1.30;;
74465;SDS011;62916;50.044;15.938;2022-09-01T06:51:26;1.80;;;1.70;;
74465;SDS011;62916;50.044;15.938;2022-09-01T06:53:58;1.80;;;1.70;;
74465;SDS011;62916;50.044;15.938;2022-09-01T06:56:30;1.90;;;1.70;;
74465;SDS011;62916;50.044;15.938;2022-09-01T06:59:11;2.30;;;1.50;;
74465;SDS011;62916;50.044;15.938;2022-09-01T07:01:43;1.50;;;1.40;;
74465;SDS011;62916;50.044;15.938;2022-09-01T07:04:16;2.10;;;1.40;;
74465;SDS011;62916;50.044;15.938;2022-09-01T07:06:48;1.60;;;1.50;;
74465;SDS011;62916;50.044;15.938;2022-09-01T07:09:28;1.70;;;1.50;;
74465;SDS011;62916;50.044;15.938;2022-09-01T07:12:19;1.20;;;1.10;;
74465;SDS011;62916;50.044;15.938;2022-09-01T07:14:52;1.10;;;1.00;;
74465;SDS011;62916;50.044;15.938;2022-09-01T07:17:46;1.70;;;1.30;;
74465;SDS011;62916;50.044;15.938;2022-09-01T07:20:20;1.50;;;1.30;;
74465;SDS011;62916;50.044;15.938;2022-09-01T07:25:31;1.30;;;1.10;;
74465;SDS011;62916;50.044;15.938;2022-09-01T07:28:25;1.70;;;1.50;;
74465;SDS011;62916;50.044;15.938;2022-09-01T07:31:19;1.90;;;1.20;;
74465;SDS011;62916;50.044;15.938;2022-09-01T07:34:12;1.30;;;1.10;;
74465;SDS011;62916;50.044;15.938;2022-09-01T07:39:53;1.10;;;1.00;;
74465;SDS011;62916;50.044;15.938;2022-09-01T07:42:45;1.70;;;1.20;;
74465;SDS011;62916;50.044;15.938;2022-09-01T07:45:32;1.50;;;1.30;;
74465;SDS011;62916;50.044;15.938;2022-09-01T07:48:14;1.60;;;1.20;;
74465;SDS011;62916;50.044;15.938;2022-09-01T07:51:07;2.00;;;1.10;;
74465;SDS011;62916;50.044;15.938;2022-09-01T07:53:59;1.90;;;1.40;;
74465;SDS011;62916;50.044;15.938;2022-09-01T07:56:30;2.10;;;1.20;;
74465;SDS011;62916;50.044;15.938;2022-09-01T07:59:07;1.20;;;1.10;;
74465;SDS011;62916;50.044;15.938;2022-09-01T08:01:42;1.50;;;1.40;;
74465;SDS011;62916;50.044;15.938;2022-09-01T08:04:14;1.50;;;1.40;;
74465;SDS011;62916;50.044;15.938;2022-09-01T08:06:49;1.60;;;1.00;;
74465;SDS011;62916;50.044;15.938;2022-09-01T08:09:22;1.90;;;1.10;;
74465;SDS011;62916;50.044;15.938;2022-09-01T08:12:10;1.50;;;1.40;;
74465;SDS011;62916;50.044;15.938;2022-09-01T08:14:41;1.40;;;1.30;;
74465;SDS011;62916;50.044;15.938;2022-09-01T08:17:13;1.70;;;1.10;;
74465;SDS011;62916;50.044;15.938;2022-09-01T08:20:01;1.40;;;1.00;;
74465;SDS011;62916;50.044;15.938;2022-09-01T08:22:39;1.10;;;1.00;;
74465;SDS011;62916;50.044;15.938;2022-09-01T08:25:10;1.50;;;1.40;;
74465;SDS011;62916;50.044;15.938;2022-09-01T08:27:42;1.20;;;0.90;;
74465;SDS011;62916;50.044;15.938;2022-09-01T08:30:13;1.90;;;1.10;;
74465;SDS011;62916;50.044;15.938;2022-09-01T08:32:44;1.20;;;1.10;;
74465;SDS011;62916;50.044;15.938;2022-09-01T08:35:16;1.60;;;0.80;;
74465;SDS011;62916;50.044;15.938;2022-09-01T08:37:47;1.40;;;0.80;;
74465;SDS011;62916;50.044;15.938;2022-09-01T08:40:18;1.50;;;1.40;;
74465;SDS011;62916;50.044;15.938;2022-09-01T08:42:55;1.40;;;1.00;;
74465;SDS011;62916;50.044;15.938;2022-09-01T08:45:40;1.40;;;1.10;;
74465;SDS011;62916;50.044;15.938;2022-09-01T08:48:16;1.70;;;0.80;;
74465;SDS011;62916;50.044;15.938;2022-09-01T08:51:11;1.30;;;0.90;;
74465;SDS011;62916;50.044;15.938;2022-09-01T08:53:48;0.90;;;0.80;;
74465;SDS011;62916;50.044;15.938;2022-09-01T08:58:56;1.40;;;0.90;;
74465;SDS011;62916;50.044;15.938;2022-09-01T09:01:30;1.00;;;0.90;;
74465;SDS011;62916;50.044;15.938;2022-09-01T09:04:14;1.10;;;0.90;;
74465;SDS011;62916;50.044;15.938;2022-09-01T09:06:58;1.20;;;1.00;;
74465;SDS011;62916;50.044;15.938;2022-09-01T09:09:42;1.20;;;1.00;;
74465;SDS011;62916;50.044;15.938;2022-09-01T09:12:26;1.00;;;0.70;;
74465;SDS011;62916;50.044;15.938;2022-09-01T09:15:17;1.10;;;1.10;;
74465;SDS011;62916;50.044;15.938;2022-09-01T09:18:00;1.00;;;0.80;;
74465;SDS011;62916;50.044;15.938;2022-09-01T09:21:01;0.80;;;0.80;;
74465;SDS011;62916;50.044;15.938;2022-09-01T09:23:37;1.40;;;0.70;;
74465;SDS011;62916;50.044;15.938;2022-09-01T09:26:11;1.20;;;1.10;;
74465;SDS011;62916;50.044;15.938;2022-09-01T09:28:49;1.00;;;0.80;;
74465;SDS011;62916;50.044;15.938;2022-09-01T09:31:25;0.90;;;0.90;;
74465;SDS011;62916;50.044;15.938;2022-09-01T09:33:58;0.90;;;0.60;;
74465;SDS011;62916;50.044;15.938;2022-09-01T09:36:32;1.10;;;1.00;;
74465;SDS011;62916;50.044;15.938;2022-09-01T09:39:06;1.30;;;0.90;;
74465;SDS011;62916;50.044;15.938;2022-09-01T09:41:39;0.90;;;0.80;;
74465;SDS011;62916;50.044;15.938;2022-09-01T09:44:18;1.10;;;0.80;;
74465;SDS011;62916;50.044;15.938;2022-09-01T09:46:55;1.60;;;1.10;;
74465;SDS011;62916;50.044;15.938;2022-09-01T09:49:26;1.40;;;0.80;;
74465;SDS011;62916;50.044;15.938;2022-09-01T09:52:14;0.80;;;0.70;;
74465;SDS011;62916;50.044;15.938;2022-09-01T09:55:00;0.80;;;0.60;;
74465;SDS011;62916;50.044;15.938;2022-09-01T09:57:37;0.80;;;0.80;;
74465;SDS011;62916;50.044;15.938;2022-09-01T10:00:14;0.90;;;0.70;;
74465;SDS011;62916;50.044;15.938;2022-09-01T10:02:53;1.30;;;1.00;;
74465;SDS011;62916;50.044;15.938;2022-09-01T10:05:36;1.30;;;0.90;;
74465;SDS011;62916;50.044;15.938;2022-09-01T10:08:11;1.10;;;1.00;;
74465;SDS011;62916;50.044;15.938;2022-09-01T10:11:04;0.60;;;0.60;;
74465;SDS011;62916;50.044;15.938;2022-09-01T10:13:35;1.10;;;0.80;;
74465;SDS011;62916;50.044;15.938;2022-09-01T10:16:08;0.80;;;0.80;;
74465;SDS011;62916;50.044;15.938;2022-09-01T10:18:54;0.90;;;0.70;;
74465;SDS011;62916;50.044;15.938;2022-09-01T10:21:29;1.50;;;0.60;;
74465;SDS011;62916;50.044;15.938;2022-09-01T10:24:07;1.10;;;0.60;;
74465;SDS011;62916;50.044;15.938;2022-09-01T10:26:48;1.30;;;0.60;;
74465;SDS011;62916;50.044;15.938;2022-09-01T10:29:23;1.30;;;0.60;;
74465;SDS011;62916;50.044;15.938;2022-09-01T10:32:03;0.90;;;0.60;;
74465;SDS011;62916;50.044;15.938;2022-09-01T10:34:58;0.90;;;0.80;;
74465;SDS011;62916;50.044;15.938;2022-09-01T10:37:31;0.70;;;0.70;;
74465;SDS011;62916;50.044;15.938;2022-09-01T10:40:11;1.30;;;0.60;;
74465;SDS011;62916;50.044;15.938;2022-09-01T10:42:48;1.70;;;0.80;;
74465;SDS011;62916;50.044;15.938;2022-09-01T10:45:30;0.80;;;0.80;;
74465;SDS011;62916;50.044;15.938;2022-09-01T10:48:23;1.20;;;0.60;;
74465;SDS011;62916;50.044;15.938;2022-09-01T11:13:13;0.90;;;0.60;;
74465;SDS011;62916;50.044;15.938;2022-09-01T11:15:57;1.90;;;0.90;;
74465;SDS011;62916;50.044;15.938;2022-09-01T11:19:20;0.60;;;0.50;;
74465;SDS011;62916;50.044;15.938;2022-09-01T11:22:09;1.00;;;0.60;;
74465;SDS011;62916;50.044;15.938;2022-09-01T11:25:04;1.10;;;0.60;;
74465;SDS011;62916;50.044;15.938;2022-09-01T11:28:09;1.00;;;0.70;;
74465;SDS011;62916;50.044;15.938;2022-09-01T11:31:19;0.80;;;0.70;;
74465;SDS011;62916;50.044;15.938;2022-09-01T11:34:13;0.60;;;0.50;;
74465;SDS011;62916;50.044;15.938;2022-09-01T11:36:49;0.40;;;0.40;;
74465;SDS011;62916;50.044;15.938;2022-09-01T11:39:29;0.80;;;0.60;;
74465;SDS011;62916;50.044;15.938;2022-09-01T11:42:05;0.60;;;0.60;;
74465;SDS011;62916;50.044;15.938;2022-09-01T11:44:41;0.80;;;0.40;;
74465;SDS011;62916;50.044;15.938;2022-09-01T11:47:18;1.00;;;0.60;;
74465;SDS011;62916;50.044;15.938;2022-09-01T11:49:54;0.90;;;0.70;;
74465;SDS011;62916;50.044;15.938;2022-09-01T11:52:27;0.40;;;0.40;;
74465;SDS011;62916;50.044;15.938;2022-09-01T11:55:03;0.70;;;0.40;;
74465;SDS011;62916;50.044;15.938;2022-09-01T11:57:38;1.60;;;1.60;;
74465;SDS011;62916;50.044;15.938;2022-09-01T12:00:11;1.10;;;0.40;;
74465;SDS011;62916;50.044;15.938;2022-09-01T12:02:52;1.40;;;0.60;;
74465;SDS011;62916;50.044;15.938;2022-09-01T12:05:28;0.50;;;0.50;;
74465;SDS011;62916;50.044;15.938;2022-09-01T12:08:02;0.40;;;0.40;;
74465;SDS011;62916;50.044;15.938;2022-09-01T12:10:40;1.00;;;0.80;;
74465;SDS011;62916;50.044;15.938;2022-09-01T12:13:17;0.50;;;0.40;;
74465;SDS011;62916;50.044;15.938;2022-09-01T12:15:53;0.70;;;0.60;;
74465;SDS011;62916;50.044;15.938;2022-09-01T12:18:45;0.80;;;0.40;;
74465;SDS011;62916;50.044;15.938;2022-09-01T12:21:20;0.80;;;0.50;;
74465;SDS011;62916;50.044;15.938;2022-09-01T12:23:52;0.30;;;0.30;;
74465;SDS011;62916;50.044;15.938;2022-09-01T12:26:37;0.60;;;0.50;;
74465;SDS011;62916;50.044;15.938;2022-09-01T12:29:09;0.40;;;0.40;;
74465;SDS011;62916;50.044;15.938;2022-09-01T12:31:42;0.60;;;0.60;;
74465;SDS011;62916;50.044;15.938;2022-09-01T12:37:07;0.50;;;0.30;;
74465;SDS011;62916;50.044;15.938;2022-09-01T12:39:40;1.00;;;0.50;;
74465;SDS011;62916;50.044;15.938;2022-09-01T12:42:22;0.70;;;0.50;;
74465;SDS011;62916;50.044;15.938;2022-09-01T12:44:55;0.40;;;0.40;;
74465;SDS011;62916;50.044;15.938;2022-09-01T12:47:47;0.60;;;0.50;;
74465;SDS011;62916;50.044;15.938;2022-09-01T12:53:20;1.70;;;0.30;;
74465;SDS011;62916;50.044;15.938;2022-09-01T12:56:16;0.80;;;0.60;;
74465;SDS011;62916;50.044;15.938;2022-09-01T12:58:55;0.70;;;0.20;;
74465;SDS011;62916;50.044;15.938;2022-09-01T13:01:42;0.50;;;0.40;;
74465;SDS011;62916;50.044;15.938;2022-09-01T13:04:19;0.80;;;0.50;;
74465;SDS011;62916;50.044;15.938;2022-09-01T13:06:55;1.30;;;1.20;;
74465;SDS011;62916;50.044;15.938;2022-09-01T13:09:28;0.40;;;0.40;;
74465;SDS011;62916;50.044;15.938;2022-09-01T13:12:09;0.80;;;0.80;;
74465;SDS011;62916;50.044;15.938;2022-09-01T13:14:43;0.70;;;0.40;;
74465;SDS011;62916;50.044;15.938;2022-09-01T13:17:14;0.70;;;0.40;;
74465;SDS011;62916;50.044;15.938;2022-09-01T13:19:45;0.80;;;0.50;;
74465;SDS011;62916;50.044;15.938;2022-09-01T13:22:16;0.70;;;0.70;;
74465;SDS011;62916;50.044;15.938;2022-09-01T13:24:47;0.50;;;0.30;;
74465;SDS011;62916;50.044;15.938;2022-09-01T13:27:18;0.40;;;0.40;;
74465;SDS011;62916;50.044;15.938;2022-09-01T13:29:50;0.70;;;0.50;;
74465;SDS011;62916;50.044;15.938;2022-09-01T13:32:22;1.10;;;0.60;;
74465;SDS011;62916;50.044;15.938;2022-09-01T13:34:54;1.10;;;0.40;;
74465;SDS011;62916;50.044;15.938;2022-09-01T13:37:25;0.30;;;0.30;;
74465;SDS011;62916;50.044;15.938;2022-09-01T13:39:56;1.00;;;0.60;;
74465;SDS011;62916;50.044;15.938;2022-09-01T13:42:28;0.70;;;0.70;;
74465;SDS011;62916;50.044;15.938;2022-09-01T13:45:00;0.50;;;0.40;;
74465;SDS011;62916;50.044;15.938;2022-09-01T13:47:31;0.30;;;0.30;;
74465;SDS011;62916;50.044;15.938;2022-09-01T13:50:22;0.40;;;0.30;;
74465;SDS011;62916;50.044;15.938;2022-09-01T13:53:12;1.10;;;0.40;;
74465;SDS011;62916;50.044;15.938;2022-09-01T13:55:44;1.00;;;0.50;;
74465;SDS011;62916;50.044;15.938;2022-09-01T13:58:15;0.20;;;0.20;;
74465;SDS011;62916;50.044;15.938;2022-09-01T14:00:47;0.50;;;0.50;;
74465;SDS011;62916;50.044;15.938;2022-09-01T14:03:19;0.70;;;0.50;;
74465;SDS011;62916;50.044;15.938;2022-09-01T14:05:51;0.70;;;0.60;;
74465;SDS011;62916;50.044;15.938;2022-09-01T14:08:22;0.70;;;0.60;;
74465;SDS011;62916;50.044;15.938;2022-09-01T14:10:53;0.60;;;0.60;;
74465;SDS011;62916;50.044;15.938;2022-09-01T14:13:25;0.50;;;0.40;;
74465;SDS011;62916;50.044;15.938;2022-09-01T14:15:57;0.50;;;0.50;;
74465;SDS011;62916;50.044;15.938;2022-09-01T14:18:29;0.60;;;0.40;;
74465;SDS011;62916;50.044;15.938;2022-09-01T14:21:04;0.30;;;0.30;;
74465;SDS011;62916;50.044;15.938;2022-09-01T14:23:38;0.60;;;0.50;;
74465;SDS011;62916;50.044;15.938;2022-09-01T14:26:09;0.80;;;0.80;;
74465;SDS011;62916;50.044;15.938;2022-09-01T14:28:42;0.30;;;0.30;;
74465;SDS011;62916;50.044;15.938;2022-09-01T14:33:46;0.60;;;0.50;;
74465;SDS011;62916;50.044;15.938;2022-09-01T14:36:18;1.20;;;0.70;;
74465;SDS011;62916;50.044;15.938;2022-09-01T14:38:51;0.70;;;0.30;;
74465;SDS011;62916;50.044;15.938;2022-09-01T14:41:22;1.30;;;0.50;;
74465;SDS011;62916;50.044;15.938;2022-09-01T14:43:54;0.80;;;0.70;;
74465;SDS011;62916;50.044;15.938;2022-09-01T14:46:30;0.80;;;0.40;;
74465;SDS011;62916;50.044;15.938;2022-09-01T14:49:03;1.00;;;0.90;;
74465;SDS011;62916;50.044;15.938;2022-09-01T14:51:34;0.70;;;0.40;;
74465;SDS011;62916;50.044;15.938;2022-09-01T14:54:25;0.80;;;0.50;;
74465;SDS011;62916;50.044;15.938;2022-09-01T14:56:56;0.40;;;0.30;;
74465;SDS011;62916;50.044;15.938;2022-09-01T14:59:46;0.50;;;0.50;;
74465;SDS011;62916;50.044;15.938;2022-09-01T15:02:19;0.80;;;0.80;;
74465;SDS011;62916;50.044;15.938;2022-09-01T15:04:52;1.00;;;0.30;;
74465;SDS011;62916;50.044;15.938;2022-09-01T15:07:22;0.40;;;0.40;;
74465;SDS011;62916;50.044;15.938;2022-09-01T15:09:53;0.80;;;0.80;;
74465;SDS011;62916;50.044;15.938;2022-09-01T15:12:25;0.60;;;0.60;;
74465;SDS011;62916;50.044;15.938;2022-09-01T15:14:57;0.90;;;0.60;;
74465;SDS011;62916;50.044;15.938;2022-09-01T15:17:29;0.60;;;0.50;;
74465;SDS011;62916;50.044;15.938;2022-09-01T15:20:00;0.50;;;0.50;;
74465;SDS011;62916;50.044;15.938;2022-09-01T15:22:46;0.80;;;0.40;;
74465;SDS011;62916;50.044;15.938;2022-09-01T15:25:18;0.80;;;0.30;;
74465;SDS011;62916;50.044;15.938;2022-09-01T15:27:49;0.50;;;0.50;;
74465;SDS011;62916;50.044;15.938;2022-09-01T15:30:20;1.50;;;0.60;;
74465;SDS011;62916;50.044;15.938;2022-09-01T15:32:51;0.90;;;0.60;;
74465;SDS011;62916;50.044;15.938;2022-09-01T15:35:23;1.90;;;0.60;;
74465;SDS011;62916;50.044;15.938;2022-09-01T15:37:55;0.90;;;0.40;;
74465;SDS011;62916;50.044;15.938;2022-09-01T15:40:26;3.70;;;0.60;;
74465;SDS011;62916;50.044;15.938;2022-09-01T15:42:58;1.80;;;0.60;;
74465;SDS011;62916;50.044;15.938;2022-09-01T15:45:29;0.50;;;0.50;;
74465;SDS011;62916;50.044;15.938;2022-09-01T15:48:00;5.30;;;0.70;;
74465;SDS011;62916;50.044;15.938;2022-09-01T15:50:31;2.50;;;0.40;;
74465;SDS011;62916;50.044;15.938;2022-09-01T15:53:03;1.20;;;0.60;;
74465;SDS011;62916;50.044;15.938;2022-09-01T15:55:39;2.10;;;0.90;;
74465;SDS011;62916;50.044;15.938;2022-09-01T15:58:12;1.00;;;0.40;;
74465;SDS011;62916;50.044;15.938;2022-09-01T16:00:45;0.30;;;0.30;;
74465;SDS011;62916;50.044;15.938;2022-09-01T16:03:18;1.50;;;0.50;;
74465;SDS011;62916;50.044;15.938;2022-09-01T16:05:51;5.10;;;0.80;;
74465;SDS011;62916;50.044;15.938;2022-09-01T16:08:22;1.20;;;0.80;;
74465;SDS011;62916;50.044;15.938;2022-09-01T16:10:52;1.10;;;0.50;;